Time;durP1;ratioP1;P1;durP2;ratioP2;P2;SDS_P1;SDS_P2;PMS_P1;PMS_P2;Temp;Humidity;BMP_temperature;BMP_pressure;BME280_temperature;BME280_humidity;BME280_pressure;Samples;Min_cycle;Max_cycle;Signal;HPM_P1;HPM_P2
2022/11/30 05:31:16;;;;;;;;;7.50;7.50;;;;;9.10;65.65;101852.91;1426043;26;46072;-77
2022/11/30 05:33:42;;;;;;;;;11.00;10.00;;;;;9.13;65.60;101868.88;5033883;28;45308;-77
2022/11/30 05:36:07;;;;;;;;;8.50;7.25;;;;;9.09;66.12;101870.75;5040057;28;45945;-76
2022/11/30 05:38:34;;;;;;;;;9.00;7.00;;;;;9.11;66.07;101890.28;5044997;28;45445;-78
2022/11/30 05:41:00;;;;;;;;;9.75;9.75;;;;;8.99;65.75;101871.84;5032590;28;45539;-77
2022/11/30 05:43:27;;;;;;;;;7.50;7.50;;;;;9.09;65.96;101888.59;5033702;28;45386;-77
2022/11/30 05:45:58;;;;;;;;;7.50;7.50;;;;;8.98;65.65;101877.22;5033314;28;46378;-76
2022/11/30 05:48:23;;;;;;;;;6.50;6.50;;;;;9.02;65.81;101890.50;5033630;28;45474;-79
2022/11/30 05:50:49;;;;;;;;;7.00;7.00;;;;;9.01;66.36;101888.75;5033454;28;45418;-79
2022/11/30 05:53:14;;;;;;;;;8.00;8.00;;;;;8.97;66.13;101886.16;5033572;28;45382;-77
2022/11/30 05:55:41;;;;;;;;;8.00;8.00;;;;;8.86;65.60;101869.44;5033580;28;45494;-77
2022/11/30 05:58:06;;;;;;;;;8.00;6.50;;;;;8.84;65.68;101864.16;5034291;28;45417;-77
2022/11/30 06:00:32;;;;;;;;;8.00;6.50;;;;;8.98;65.92;101887.94;5037363;28;45380;-78
2022/11/30 06:02:58;;;;;;;;;8.00;5.25;;;;;8.92;65.84;101882.72;5037000;28;45374;-77
2022/11/30 06:05:25;;;;;;;;;8.00;8.00;;;;;8.92;65.39;101885.38;5036771;28;46182;-78
2022/11/30 06:07:51;;;;;;;;;6.00;6.00;;;;;8.80;65.79;101870.47;5039897;28;45419;-75
2022/11/30 06:10:16;;;;;;;;;9.25;9.25;;;;;8.88;65.62;101886.34;5038118;28;45751;-78
2022/11/30 06:12:41;;;;;;;;;7.25;6.00;;;;;8.82;66.53;101876.66;5037931;28;45566;-77
2022/11/30 06:15:07;;;;;;;;;11.00;7.75;;;;;8.71;65.99;101854.63;5036877;28;46139;-78
2022/11/30 06:17:33;;;;;;;;;8.50;8.50;;;;;8.82;66.39;101871.31;5048202;28;45349;-77
2022/11/30 06:19:58;;;;;;;;;9.50;8.00;;;;;8.88;65.68;101883.69;5051694;28;45445;-77
2022/11/30 06:22:24;;;;;;;;;9.75;9.75;;;;;8.58;66.07;101853.13;5037102;28;45319;-81
2022/11/30 06:24:49;;;;;;;;;9.25;9.25;;;;;8.68;66.89;101878.72;5036715;28;45505;-77
2022/11/30 06:27:15;;;;;;;;;9.75;9.75;;;;;8.69;66.81;101878.69;5036450;28;45299;-77
2022/11/30 06:29:41;;;;;;;;;12.25;9.25;;;;;8.28;67.40;101838.50;5035722;28;45430;-78
2022/11/30 06:32:06;;;;;;;;;10.75;8.00;;;;;8.43;67.94;101877.44;5034640;28;45239;-75
2022/11/30 06:34:32;;;;;;;;;9.75;7.75;;;;;8.38;67.97;101876.66;5038284;28;45651;-75
2022/11/30 06:36:57;;;;;;;;;9.00;9.00;;;;;8.40;67.77;101869.50;5044579;28;45420;-74
2022/11/30 06:39:23;;;;;;;;;7.50;7.50;;;;;8.49;68.27;101880.03;5040712;28;45379;-75
2022/11/30 06:41:48;;;;;;;;;9.00;8.75;;;;;8.51;67.93;101879.06;5018436;28;46260;-75
2022/11/30 06:44:13;;;;;;;;;9.25;8.25;;;;;8.58;68.29;101878.06;5036335;28;45173;-75
2022/11/30 06:46:39;;;;;;;;;9.25;9.00;;;;;8.59;67.94;101878.94;5036335;28;45356;-76
2022/11/30 06:49:05;;;;;;;;;7.75;7.75;;;;;8.68;67.89;101887.63;5036540;28;45349;-73
2022/11/30 06:51:30;;;;;;;;;8.00;8.00;;;;;8.73;67.96;101892.91;5036523;28;45485;-73
2022/11/30 06:53:55;;;;;;;;;15.75;11.50;;;;;8.78;68.19;101890.13;5036041;28;45387;-76
2022/11/30 06:56:21;;;;;;;;;10.25;9.00;;;;;8.83;68.44;101890.94;5035956;28;45316;-74
2022/11/30 06:58:46;;;;;;;;;11.25;11.25;;;;;8.84;67.39;101888.22;5037196;28;45379;-74
2022/11/30 07:01:14;;;;;;;;;12.75;8.75;;;;;8.85;67.66;101884.59;5036197;28;45378;-75
2022/11/30 07:03:40;;;;;;;;;8.25;8.25;;;;;8.92;67.48;101891.63;5035604;28;46053;-72
2022/11/30 07:06:11;;;;;;;;;8.75;8.75;;;;;8.99;67.71;101903.06;5036043;28;45381;-70
2022/11/30 07:08:37;;;;;;;;;10.50;10.00;;;;;8.99;67.72;101893.25;5035560;28;45367;-73
2022/11/30 07:11:04;;;;;;;;;9.75;9.00;;;;;9.02;67.81;101892.28;5035846;28;45266;-73
2022/11/30 07:13:29;;;;;;;;;16.00;12.00;;;;;9.07;67.25;101896.63;5035719;28;46215;-73
2022/11/30 07:15:55;;;;;;;;;13.50;11.25;;;;;9.07;67.29;101904.66;5036413;28;45394;-73
2022/11/30 07:18:20;;;;;;;;;15.00;11.50;;;;;9.11;67.23;101906.34;5038020;28;45327;-71
2022/11/30 07:20:46;;;;;;;;;17.00;12.75;;;;;9.14;67.30;101901.84;5038711;28;45422;-73
2022/11/30 07:26:06;;;;;;;;;17.75;15.00;;;;;9.17;66.75;101905.34;5035577;28;45681;-73
2022/11/30 07:28:36;;;;;;;;;14.50;12.50;;;;;9.09;66.93;101899.28;5045098;28;45462;-74
2022/11/30 07:31:21;;;;;;;;;12.25;9.75;;;;;9.13;66.83;101914.34;5055975;28;45365;-74
2022/11/30 07:33:47;;;;;;;;;19.25;14.25;;;;;8.96;66.83;101885.28;5055380;28;45355;-73
2022/11/30 07:36:14;;;;;;;;;14.25;14.25;;;;;9.06;66.99;101908.25;5041497;28;45397;-73
2022/11/30 07:38:39;;;;;;;;;13.75;12.75;;;;;9.07;67.15;101915.38;5045389;28;45404;-71
2022/11/30 07:41:05;;;;;;;;;16.00;16.00;;;;;9.04;66.90;101907.41;5034892;28;45505;-72
2022/11/30 07:43:31;;;;;;;;;14.25;14.25;;;;;9.14;66.75;101918.78;5035520;28;45366;-74
2022/11/30 07:45:57;;;;;;;;;16.75;14.25;;;;;8.99;67.00;101901.28;5035269;28;45315;-72
2022/11/30 07:48:23;;;;;;;;;15.50;15.50;;;;;9.03;67.15;101902.94;5035782;28;45368;-75
2022/11/30 07:50:48;;;;;;;;;17.50;14.00;;;;;9.16;66.74;101933.03;5035526;28;45578;-74
2022/11/30 07:53:14;;;;;;;;;14.75;13.25;;;;;9.14;67.05;101926.81;5035271;28;46213;-73
2022/11/30 07:55:40;;;;;;;;;20.75;17.25;;;;;9.10;66.95;101919.78;5034609;28;45326;-74
2022/11/30 07:58:06;;;;;;;;;14.75;14.50;;;;;9.19;66.50;101932.06;5035563;28;45316;-74
2022/11/30 08:00:31;;;;;;;;;15.75;14.00;;;;;9.18;66.70;101933.88;5035348;28;45514;-74
2022/11/30 08:02:56;;;;;;;;;20.25;15.25;;;;;9.18;66.66;101941.03;5035024;28;46001;-73
2022/11/30 08:05:25;;;;;;;;;15.25;14.00;;;;;9.15;66.85;101936.59;5034778;28;45247;-73
2022/11/30 08:07:51;;;;;;;;;15.50;14.25;;;;;9.16;66.46;101934.81;5034010;28;45391;-72
2022/11/30 08:10:18;;;;;;;;;14.25;13.50;;;;;9.18;66.70;101941.03;5034705;28;45616;-73
2022/11/30 08:12:43;;;;;;;;;18.50;16.50;;;;;9.18;66.92;101946.38;5034825;28;47543;-76
2022/11/30 08:15:09;;;;;;;;;15.00;13.75;;;;;9.16;67.03;101943.72;5034819;28;45213;-72
2022/11/30 08:17:35;;;;;;;;;12.50;12.50;;;;;9.19;66.89;101945.44;5035051;28;45493;-72
2022/11/30 08:20:00;;;;;;;;;10.75;10.75;;;;;9.13;66.79;101945.56;5034407;28;45552;-73
2022/11/30 08:22:25;;;;;;;;;19.00;15.25;;;;;9.06;66.96;101924.31;5034449;28;46185;-73
2022/11/30 08:24:51;;;;;;;;;14.25;13.50;;;;;9.12;67.10;101933.97;5034518;28;45382;-73
2022/11/30 08:27:16;;;;;;;;;14.25;13.50;;;;;9.19;66.96;101946.31;5034865;28;45750;-72
2022/11/30 08:29:41;;;;;;;;;19.25;14.75;;;;;9.20;67.17;101952.53;5034100;28;51527;-74
2022/11/30 08:32:07;;;;;;;;;17.25;14.75;;;;;9.19;66.87;101953.44;5034420;28;46075;-72
2022/11/30 08:34:32;;;;;;;;;19.00;16.00;;;;;9.23;66.94;101956.06;5038032;28;45406;-75
2022/11/30 08:36:57;;;;;;;;;19.25;16.75;;;;;9.25;66.81;101953.34;5044273;28;45251;-72
2022/11/30 08:39:23;;;;;;;;;17.50;15.75;;;;;9.26;67.30;101956.00;5037098;28;46077;-72
2022/11/30 08:41:50;;;;;;;;;13.25;13.25;;;;;9.28;67.21;101956.81;5034137;28;47424;-74
2022/11/30 08:44:16;;;;;;;;;19.25;17.50;;;;;9.24;66.59;101955.13;5034359;28;45398;-74
2022/11/30 08:46:41;;;;;;;;;15.75;15.25;;;;;9.22;66.75;101945.38;5034522;28;48321;-73
2022/11/30 08:49:07;;;;;;;;;21.50;16.25;;;;;9.31;66.57;101964.78;5034341;28;45489;-74
2022/11/30 08:51:32;;;;;;;;;18.25;14.50;;;;;9.32;67.17;101963.88;5034337;28;47359;-73
2022/11/30 08:53:58;;;;;;;;;17.50;14.50;;;;;9.35;66.92;101965.63;5034165;28;45383;-72
2022/11/30 08:56:23;;;;;;;;;18.50;18.25;;;;;9.35;66.64;101968.31;5034392;28;46034;-75
2022/11/30 08:58:49;;;;;;;;;17.50;16.00;;;;;9.31;66.87;101956.75;5035465;28;45557;-74
2022/11/30 09:01:18;;;;;;;;;20.50;18.25;;;;;9.37;66.95;101970.00;5034412;28;45292;-73
2022/11/30 09:03:45;;;;;;;;;18.50;14.50;;;;;9.30;66.87;101949.66;5034368;28;45323;-74
2022/11/30 09:06:29;;;;;;;;;18.25;17.50;;;;;9.40;66.55;101961.94;5034423;28;45324;-74
2022/11/30 09:08:56;;;;;;;;;20.50;16.50;;;;;9.43;66.93;101963.66;5034440;28;45366;-74
2022/11/30 09:11:24;;;;;;;;;18.50;18.00;;;;;9.46;67.12;101966.25;5032382;28;47153;-72
2022/11/30 09:13:51;;;;;;;;;22.75;19.00;;;;;9.38;66.74;101953.03;5034118;28;45278;-74
2022/11/30 09:16:18;;;;;;;;;20.75;19.00;;;;;9.48;66.59;101965.31;5034164;28;45315;-74
2022/11/30 09:18:45;;;;;;;;;15.50;14.25;;;;;9.37;66.25;101955.75;5032618;28;45437;-73
2022/11/30 09:21:13;;;;;;;;;17.75;16.00;;;;;9.50;66.41;101973.31;5034088;28;46370;-73
2022/11/30 09:23:39;;;;;;;;;17.50;13.75;;;;;9.52;66.38;101975.97;5033750;28;45412;-74
2022/11/30 09:26:08;;;;;;;;;15.50;15.50;;;;;9.50;65.91;101970.63;5034002;28;45544;-73
2022/11/30 09:28:34;;;;;;;;;16.00;15.25;;;;;9.56;65.83;101983.00;5033835;28;45486;-75
2022/11/30 09:31:01;;;;;;;;;22.00;15.75;;;;;9.51;65.85;101974.19;5033638;28;46247;-75
2022/11/30 09:33:27;;;;;;;;;21.00;19.00;;;;;9.55;66.25;101984.78;5036785;28;45407;-73
2022/11/30 09:36:00;;;;;;;;;13.25;12.50;;;;;9.60;65.92;101996.31;5041616;28;45342;-73
2022/11/30 09:38:27;;;;;;;;;19.50;17.25;;;;;9.56;65.59;101980.31;5049526;28;45548;-74
2022/11/30 09:41:00;;;;;;;;;18.50;17.75;;;;;9.65;65.82;101989.03;5037051;28;46196;-75
2022/11/30 09:43:48;;;;;;;;;19.50;17.50;;;;;9.69;66.23;101988.06;5038591;28;45375;-75
2022/11/30 09:46:13;;;;;;;;;19.50;17.00;;;;;9.69;65.67;101989.88;5039492;28;45362;-74
2022/11/30 09:48:44;;;;;;;;;24.00;20.25;;;;;9.72;65.43;101989.78;5039319;28;45548;-76
2022/11/30 09:51:21;;;;;;;;;20.75;17.50;;;;;9.63;65.88;101955.16;5038180;28;48198;-76
2022/11/30 09:54:19;;;;;;;;;14.50;12.25;;;;;9.82;65.23;101978.81;5039526;28;45374;-76
2022/11/30 09:56:45;;;;;;;;;21.25;19.50;;;;;9.83;65.25;101971.66;5036236;28;45419;-75
2022/11/30 09:59:19;;;;;;;;;24.75;21.50;;;;;9.76;65.03;101957.56;5037561;28;45403;-75
2022/11/30 10:01:47;;;;;;;;;23.00;20.50;;;;;9.73;65.17;101952.25;5037173;28;46522;-73
2022/11/30 10:04:23;;;;;;;;;20.25;17.75;;;;;9.94;65.23;101982.16;5036917;28;45295;-75
2022/11/30 10:07:27;;;;;;;;;29.75;26.50;;;;;9.88;64.96;101970.63;5037040;28;45483;-73
2022/11/30 10:10:15;;;;;;;;;25.50;22.25;;;;;9.96;64.98;101985.63;5036536;28;45284;-74
2022/11/30 10:12:49;;;;;;;;;21.75;19.75;;;;;9.96;64.79;101981.16;5034899;28;48645;-74
2022/11/30 10:16:04;;;;;;;;;22.75;20.25;;;;;10.00;64.75;101987.34;5036730;28;45403;-75
2022/11/30 10:18:39;;;;;;;;;24.25;23.00;;;;;9.74;64.41;101926.34;5036539;28;45355;-74
2022/11/30 10:21:31;;;;;;;;;23.50;20.50;;;;;10.04;64.59;101972.94;5036912;28;45363;-75
2022/11/30 10:24:11;;;;;;;;;26.25;24.00;;;;;10.11;64.91;101974.59;5045705;28;46127;-74
2022/11/30 10:26:42;;;;;;;;;27.00;21.50;;;;;10.07;65.16;101973.75;5056589;28;45600;-73
2022/11/30 10:29:19;;;;;;;;;27.75;24.00;;;;;10.18;64.55;101985.16;5057021;28;45232;-74
2022/11/30 10:31:48;;;;;;;;;25.25;23.00;;;;;10.11;64.83;101966.53;5056473;28;45362;-74
2022/11/30 10:34:27;;;;;;;;;25.75;25.25;;;;;10.17;64.64;101966.38;5056001;28;45335;-73
2022/11/30 10:37:02;;;;;;;;;26.25;22.75;;;;;10.26;64.36;101984.06;5045511;28;45177;-75
2022/11/30 10:39:56;;;;;;;;;25.25;23.00;;;;;10.28;64.53;101976.88;5039494;28;45339;-74
2022/11/30 10:42:29;;;;;;;;;26.00;22.25;;;;;10.24;64.66;101974.28;5031164;28;45559;-73
2022/11/30 10:45:10;;;;;;;;;30.50;28.00;;;;;10.29;64.34;101974.16;5035699;28;46208;-75
2022/11/30 10:47:43;;;;;;;;;23.25;22.25;;;;;10.30;64.85;101978.59;5036199;28;45394;-74
2022/11/30 10:50:14;;;;;;;;;27.25;23.75;;;;;10.32;64.56;101967.81;5036397;28;45381;-73
2022/11/30 10:52:59;;;;;;;;;28.50;21.50;;;;;10.32;63.68;101966.03;5035887;28;45405;-75
2022/11/30 10:55:32;;;;;;;;;30.25;21.50;;;;;10.38;63.51;101963.19;5035977;28;45334;-73
2022/11/30 10:58:09;;;;;;;;;22.25;20.50;;;;;10.37;63.28;101958.78;5036064;28;45549;-75
2022/11/30 11:00:34;;;;;;;;;27.25;23.50;;;;;10.38;63.81;101963.19;5036605;28;45311;-74
2022/11/30 11:02:59;;;;;;;;;21.00;21.00;;;;;10.43;63.70;101957.72;5036188;28;45303;-74
2022/11/30 11:05:27;;;;;;;;;11.25;11.25;;;;;10.48;63.50;101964.72;5035837;28;45979;-75
2022/11/30 11:08:17;;;;;;;;;20.50;17.75;;;;;10.55;63.46;101960.06;5036253;28;45360;-76
2022/11/30 11:10:46;;;;;;;;;26.50;20.25;;;;;10.65;63.46;101958.91;5043910;28;45495;-73
2022/11/30 11:13:16;;;;;;;;;19.25;17.25;;;;;10.71;63.31;101957.88;5055918;28;45581;-72
2022/11/30 11:15:56;;;;;;;;;28.50;24.00;;;;;10.79;62.29;101956.75;5054671;28;47444;-74
2022/11/30 11:18:21;;;;;;;;;25.75;22.50;;;;;10.88;62.89;101958.31;5055735;28;45410;-74
2022/11/30 11:20:47;;;;;;;;;25.00;23.25;;;;;10.93;62.60;101953.66;5056153;28;45177;-73
2022/11/30 11:23:32;;;;;;;;;23.75;22.50;;;;;10.93;61.93;101957.22;5055912;28;45465;-72
2022/11/30 11:25:57;;;;;;;;;21.50;19.75;;;;;10.90;62.55;101938.53;5055539;28;46106;-75
2022/11/30 11:28:24;;;;;;;;;19.25;17.50;;;;;11.04;62.30;101948.00;5055461;28;45339;-76
2022/11/30 11:30:54;;;;;;;;;27.25;21.50;;;;;11.07;62.03;101948.78;5054347;28;45389;-74
2022/11/30 11:33:27;;;;;;;;;21.25;20.50;;;;;11.12;61.52;101956.72;5054726;28;45610;-74
2022/11/30 11:36:14;;;;;;;;;24.00;20.25;;;;;11.13;61.49;101948.63;5041372;28;45496;-73
2022/11/30 11:38:47;;;;;;;;;26.50;21.75;;;;;10.94;61.58;101918.75;5046539;28;45422;-74
2022/11/30 11:41:18;;;;;;;;;26.00;22.50;;;;;10.93;62.00;101919.66;5044521;28;45503;-73
2022/11/30 11:44:08;;;;;;;;;23.50;19.25;;;;;11.09;62.34;101941.56;5046409;28;45501;-75
2022/11/30 11:46:36;;;;;;;;;22.75;22.75;;;;;10.91;61.89;101923.31;5035622;28;45291;-75
2022/11/30 11:49:20;;;;;;;;;20.75;19.25;;;;;11.01;61.74;101940.91;5044639;28;45435;-75
2022/11/30 11:51:45;;;;;;;;;19.50;18.25;;;;;10.94;62.14;101932.16;5045932;28;45210;-75
2022/11/30 11:54:38;;;;;;;;;24.75;21.75;;;;;10.94;61.69;101931.28;5043482;28;45557;-74
2022/11/30 11:57:10;;;;;;;;;25.25;21.25;;;;;10.93;62.01;101933.09;5043413;28;45506;-75
2022/11/30 11:59:55;;;;;;;;;24.00;21.75;;;;;10.93;62.19;101935.78;5046292;28;45609;-72
2022/11/30 12:02:36;;;;;;;;;25.25;24.25;;;;;10.94;62.68;101934.84;5044668;28;45493;-73
2022/11/30 12:05:16;;;;;;;;;23.50;21.25;;;;;10.95;62.61;101936.63;5043445;28;45305;-73
2022/11/30 12:07:52;;;;;;;;;22.75;20.50;;;;;10.91;62.49;101932.25;5045368;28;47050;-73
2022/11/30 12:10:28;;;;;;;;;12.25;12.25;;;;;10.94;62.64;101934.84;5047334;28;45362;-72
2022/11/30 12:12:54;;;;;;;;;24.50;21.50;;;;;10.96;62.81;101929.44;5047758;28;45421;-73
2022/11/30 12:15:25;;;;;;;;;24.50;21.00;;;;;10.99;62.58;101930.22;5045458;28;45430;-73
2022/11/30 12:18:15;;;;;;;;;23.00;20.00;;;;;11.00;62.67;101936.47;5043050;28;46241;-73
2022/11/30 12:20:50;;;;;;;;;23.25;23.25;;;;;11.02;62.75;101928.38;5066614;28;45409;-71
2022/11/30 12:23:50;;;;;;;;;28.00;24.75;;;;;11.03;62.55;101935.50;5044951;28;45374;-74
2022/11/30 12:26:33;;;;;;;;;26.00;19.50;;;;;10.99;62.68;101921.28;5041684;28;45470;-73
2022/11/30 12:29:19;;;;;;;;;21.50;18.25;;;;;11.02;62.66;101920.34;5044422;28;46229;-73
2022/11/30 12:32:10;;;;;;;;;23.00;20.25;;;;;10.94;62.55;101917.88;5043899;28;45575;-75
2022/11/30 12:34:41;;;;;;;;;21.25;19.75;;;;;11.00;62.62;101926.63;5044657;28;45552;-71
2022/11/30 12:37:09;;;;;;;;;22.50;22.50;;;;;11.00;62.21;101926.63;5043541;28;45303;-73
2022/11/30 12:39:58;;;;;;;;;19.00;15.75;;;;;10.99;62.37;101929.34;5042608;28;46106;-73
2022/11/30 12:42:37;;;;;;;;;20.50;18.50;;;;;10.99;62.49;101932.03;5057607;28;45630;-74
2022/11/30 12:45:18;;;;;;;;;18.25;18.00;;;;;10.99;62.38;101929.34;5045742;28;45399;-76
2022/11/30 12:47:57;;;;;;;;;18.50;16.75;;;;;10.99;62.39;101923.97;5033113;28;45608;-71
2022/11/30 12:51:04;;;;;;;;;22.50;20.00;;;;;10.97;62.61;101928.53;5051604;28;45405;-75
2022/11/30 12:53:39;;;;;;;;;25.75;22.00;;;;;10.96;62.99;101930.31;5029118;28;45839;-74
2022/11/30 12:56:33;;;;;;;;;27.00;24.50;;;;;10.91;63.03;101918.84;5034320;28;45423;-73
2022/11/30 12:59:26;;;;;;;;;24.25;18.50;;;;;10.95;63.21;101923.19;5026236;28;45586;-74
2022/11/30 13:02:30;;;;;;;;;24.00;24.00;;;;;10.95;62.88;101922.31;5032979;28;46280;-75
2022/11/30 13:05:03;;;;;;;;;22.25;21.25;;;;;10.94;62.45;101917.88;5034340;28;45395;-73
2022/11/30 13:07:47;;;;;;;;;29.00;22.50;;;;;10.94;62.54;101909.81;5036084;28;45343;-72
2022/11/30 13:10:15;;;;;;;;;21.50;21.00;;;;;11.00;62.46;101913.19;5036342;28;46189;-75
2022/11/30 13:12:44;;;;;;;;;23.25;19.50;;;;;11.01;62.70;101906.03;5046858;28;45472;-74
2022/11/30 13:15:19;;;;;;;;;20.25;18.50;;;;;11.06;62.41;101903.22;5054552;28;45295;-72
2022/11/30 13:17:45;;;;;;;;;18.25;16.75;;;;;11.02;62.05;101898.88;5038223;28;45501;-72
2022/11/30 13:20:56;;;;;;;;;20.75;20.75;;;;;11.09;62.13;101909.38;5037478;28;45453;-72
2022/11/30 13:23:45;;;;;;;;;26.25;21.75;;;;;11.12;62.20;101911.09;5034955;28;46364;-71
2022/11/30 13:26:19;;;;;;;;;21.00;19.75;;;;;11.09;62.20;101909.38;5037415;28;45371;-72
2022/11/30 13:28:45;;;;;;;;;24.50;19.75;;;;;11.10;62.01;101918.31;5045385;28;45532;-73
2022/11/30 13:32:04;;;;;;;;;15.75;15.75;;;;;11.09;62.31;101917.41;5057138;28;45700;-73
2022/11/30 13:34:31;;;;;;;;;17.50;16.00;;;;;11.05;61.93;101920.25;5052709;28;45517;-73
2022/11/30 13:37:06;;;;;;;;;21.50;21.00;;;;;10.94;62.00;101917.88;5046781;28;45445;-74
2022/11/30 13:39:43;;;;;;;;;23.00;20.00;;;;;10.97;62.04;101926.69;5039726;28;45497;-72
2022/11/30 13:42:37;;;;;;;;;21.50;21.25;;;;;10.94;62.57;101926.81;5036707;28;45394;-74
2022/11/30 13:45:12;;;;;;;;;23.75;21.50;;;;;10.95;62.70;101930.38;5035591;28;47348;-74
2022/11/30 13:47:39;;;;;;;;;27.00;22.00;;;;;10.91;62.52;101920.63;5054464;28;45430;-73
2022/11/30 13:50:23;;;;;;;;;22.25;19.50;;;;;10.93;62.60;101929.53;5057788;28;45492;-73
2022/11/30 13:53:19;;;;;;;;;22.50;19.00;;;;;10.87;63.07;101924.34;5056990;28;46016;-73
2022/11/30 13:55:47;;;;;;;;;29.50;23.50;;;;;10.84;63.26;101933.34;5056996;28;46424;-73
2022/11/30 13:58:15;;;;;;;;;21.25;20.00;;;;;10.85;63.45;101926.19;5057357;28;45346;-73
2022/11/30 14:00:40;;;;;;;;;25.25;22.75;;;;;10.84;63.47;101924.41;5038695;28;45401;-72
2022/11/30 14:03:21;;;;;;;;;25.00;19.75;;;;;10.82;63.73;101929.81;5035579;28;45995;-71
2022/11/30 14:05:47;;;;;;;;;18.25;16.75;;;;;10.81;63.52;101930.72;5043529;28;46749;-73
2022/11/30 14:08:21;;;;;;;;;19.50;18.50;;;;;10.82;63.46;101937.88;5056544;28;45398;-75
2022/11/30 14:10:51;;;;;;;;;21.75;17.50;;;;;10.80;63.29;101930.81;5056770;28;45339;-73
2022/11/30 14:13:19;;;;;;;;;20.00;19.25;;;;;10.79;63.34;101929.03;5057692;28;45295;-73
2022/11/30 14:15:44;;;;;;;;;20.00;20.00;;;;;10.74;63.83;101937.19;5056995;28;46393;-73
2022/11/30 14:18:09;;;;;;;;;17.25;16.00;;;;;10.73;63.55;101945.28;5056205;28;45336;-72
2022/11/30 14:20:56;;;;;;;;;17.50;14.75;;;;;10.72;63.41;101946.22;5056925;28;45377;-73
2022/11/30 14:23:39;;;;;;;;;20.50;20.25;;;;;10.71;63.67;101939.09;5057501;28;45392;-71
2022/11/30 14:26:09;;;;;;;;;19.50;15.25;;;;;10.48;63.86;101905.72;5056448;28;48683;-72
2022/11/30 14:28:42;;;;;;;;;13.00;11.25;;;;;10.66;63.57;101941.00;5058335;28;45219;-73
2022/11/30 14:31:14;;;;;;;;;11.25;10.00;;;;;10.63;63.65;101938.44;5057968;28;45455;-73
2022/11/30 14:33:53;;;;;;;;;17.00;16.00;;;;;10.60;64.44;101947.44;5057671;28;45251;-72
2022/11/30 14:36:21;;;;;;;;;15.25;13.25;;;;;10.56;64.29;101943.06;5040508;28;46338;-74
2022/11/30 14:38:46;;;;;;;;;21.25;16.50;;;;;10.54;64.59;101940.44;5045378;28;45315;-73
2022/11/30 14:41:20;;;;;;;;;20.00;18.00;;;;;10.55;64.78;101944.84;5034940;28;45328;-72
2022/11/30 14:44:11;;;;;;;;;26.25;21.25;;;;;10.58;64.44;101949.28;5036452;28;45342;-72
2022/11/30 14:46:37;;;;;;;;;30.00;22.00;;;;;10.56;64.95;101949.31;5045231;28;45376;-73
2022/11/30 14:49:23;;;;;;;;;26.75;19.25;;;;;10.58;65.06;101962.69;5056233;28;45402;-72
2022/11/30 14:52:03;;;;;;;;;30.75;23.00;;;;;10.38;64.85;101931.00;5055876;28;45184;-72
2022/11/30 14:54:37;;;;;;;;;31.00;25.75;;;;;10.57;65.14;101960.91;5056281;28;45386;-72
2022/11/30 14:57:27;;;;;;;;;21.75;21.00;;;;;10.54;65.52;101961.91;5055753;28;45414;-71
2022/11/30 14:59:54;;;;;;;;;25.25;20.00;;;;;10.52;65.46;101955.69;5045296;28;45358;-72
2022/11/30 15:02:36;;;;;;;;;32.00;22.75;;;;;10.54;65.10;101964.56;5035961;28;45274;-72
2022/11/30 15:05:03;;;;;;;;;20.75;20.50;;;;;10.53;65.53;101960.13;5036029;28;45284;-72
2022/11/30 15:07:29;;;;;;;;;23.00;21.00;;;;;10.45;65.24;101945.16;5035686;28;46153;-74
2022/11/30 15:10:04;;;;;;;;;18.50;16.00;;;;;10.39;65.64;101935.47;5035796;28;45239;-72
2022/11/30 15:12:31;;;;;;;;;22.25;21.50;;;;;10.49;65.38;101961.13;5043480;28;45265;-72
2022/11/30 15:15:00;;;;;;;;;17.25;17.25;;;;;10.36;65.28;101940.03;5054266;28;45524;-72
2022/11/30 15:17:26;;;;;;;;;17.75;16.50;;;;;10.42;65.80;101946.13;5055908;28;46705;-71
2022/11/30 15:19:51;;;;;;;;;18.25;16.25;;;;;10.40;65.82;101953.31;5055790;28;45351;-73
2022/11/30 15:22:23;;;;;;;;;24.50;18.50;;;;;10.44;65.65;101956.81;5056204;28;45248;-73
2022/11/30 15:24:49;;;;;;;;;17.50;17.50;;;;;10.42;66.09;101967.56;5055484;28;45515;-74
2022/11/30 15:27:21;;;;;;;;;22.25;17.25;;;;;10.44;66.19;101968.41;5055597;28;45363;-72
2022/11/30 15:29:58;;;;;;;;;18.50;16.75;;;;;10.38;65.78;101956.97;5055075;28;45444;-72
2022/11/30 15:32:24;;;;;;;;;22.75;20.75;;;;;10.44;65.96;101968.41;5055453;28;45398;-74
2022/11/30 15:34:53;;;;;;;;;21.25;19.75;;;;;10.44;66.52;101968.41;5050574;28;45315;-73
2022/11/30 15:37:19;;;;;;;;;17.50;17.50;;;;;10.43;66.01;101963.09;5047960;28;45563;-73
2022/11/30 15:39:52;;;;;;;;;20.00;18.25;;;;;10.44;66.07;101963.03;5035971;28;45327;-72
2022/11/30 15:42:27;;;;;;;;;22.50;18.75;;;;;10.43;66.40;101965.75;5035346;28;46566;-70
2022/11/30 15:45:15;;;;;;;;;23.00;20.50;;;;;10.41;66.62;101957.75;5034402;28;45294;-72
2022/11/30 15:47:41;;;;;;;;;21.75;20.00;;;;;10.44;66.61;101959.47;5035101;28;46283;-73
2022/11/30 15:50:25;;;;;;;;;24.25;19.00;;;;;10.48;66.50;101969.19;5035341;28;45382;-72
2022/11/30 15:52:53;;;;;;;;;23.50;16.50;;;;;10.49;66.42;101962.91;5033918;28;45288;-71
2022/11/30 15:55:44;;;;;;;;;21.00;18.75;;;;;10.50;66.74;101967.38;5049539;28;45936;-72
2022/11/30 15:58:36;;;;;;;;;28.25;24.50;;;;;10.47;66.39;101962.94;5055266;28;45354;-71
2022/11/30 16:01:09;;;;;;;;;16.75;16.00;;;;;10.47;67.00;101960.25;5035262;28;45180;-73
2022/11/30 16:03:55;;;;;;;;;25.75;22.25;;;;;10.44;66.66;101968.41;5035193;28;45427;-72
2022/11/30 16:06:30;;;;;;;;;15.75;14.50;;;;;10.43;66.84;101965.75;5030947;28;45596;-73
2022/11/30 16:09:14;;;;;;;;;18.50;18.50;;;;;10.47;66.64;101971.00;5033387;28;47353;-73
2022/11/30 16:11:40;;;;;;;;;24.50;19.25;;;;;10.45;66.69;101971.97;5033244;28;45387;-72
2022/11/30 16:14:13;;;;;;;;;27.75;23.50;;;;;10.46;67.16;101971.91;5033947;28;45422;-72
2022/11/30 16:16:38;;;;;;;;;25.50;23.75;;;;;10.41;66.88;101970.28;5034806;28;45481;-73
2022/11/30 16:19:03;;;;;;;;;32.25;23.00;;;;;10.42;66.72;101986.31;5035025;28;46116;-73
2022/11/30 16:21:29;;;;;;;;;27.25;24.25;;;;;10.36;67.09;101977.56;5033408;28;45326;-74
2022/11/30 16:23:54;;;;;;;;;25.50;25.50;;;;;10.37;66.78;101985.56;5035106;28;45311;-73
2022/11/30 16:26:20;;;;;;;;;26.25;22.50;;;;;10.25;67.20;101964.44;5034637;28;45680;-74
2022/11/30 16:28:45;;;;;;;;;22.75;18.50;;;;;10.35;67.69;101987.41;5033722;28;45421;-74
2022/11/30 16:31:29;;;;;;;;;26.25;25.75;;;;;10.39;67.71;101991.75;5034635;28;45358;-73
2022/11/30 16:33:54;;;;;;;;;22.75;19.75;;;;;10.38;68.05;101991.81;5036649;28;45353;-72
2022/11/30 16:36:20;;;;;;;;;28.75;23.25;;;;;10.30;68.00;101965.19;5040266;28;45508;-74
2022/11/30 16:38:48;;;;;;;;;35.00;27.00;;;;;10.43;68.02;101981.84;5043647;28;45341;-73
2022/11/30 16:41:22;;;;;;;;;28.25;27.00;;;;;10.45;67.89;101986.25;5033683;28;45355;-73
2022/11/30 16:43:57;;;;;;;;;37.75;32.50;;;;;10.48;67.48;101988.84;5033214;28;45277;-74
2022/11/30 16:46:25;;;;;;;;;29.75;28.25;;;;;10.44;67.99;101979.13;5035368;28;45295;-72
2022/11/30 16:48:51;;;;;;;;;30.75;26.50;;;;;10.41;67.52;101976.53;5035238;28;45357;-71
2022/11/30 16:51:33;;;;;;;;;29.75;25.75;;;;;10.48;67.79;101982.59;5036851;28;45887;-75
2022/11/30 16:53:58;;;;;;;;;27.75;23.75;;;;;10.49;67.80;101987.03;5034034;28;45324;-73
2022/11/30 16:56:24;;;;;;;;;29.00;27.25;;;;;10.50;67.74;101995.06;5035267;28;45552;-73
2022/11/30 16:58:50;;;;;;;;;29.00;27.75;;;;;10.41;67.67;101970.28;5034784;28;47172;-74
2022/11/30 17:01:29;;;;;;;;;33.00;28.50;;;;;10.49;67.67;101982.56;5034411;28;45204;-73
2022/11/30 17:03:55;;;;;;;;;24.50;23.50;;;;;10.46;67.90;101985.31;5034142;28;45452;-73
2022/11/30 17:06:23;;;;;;;;;34.75;26.75;;;;;10.51;67.88;102004.88;5033895;28;45411;-71
2022/11/30 17:08:50;;;;;;;;;30.25;25.50;;;;;10.49;67.88;101998.66;5033541;28;46114;-72
2022/11/30 17:11:26;;;;;;;;;25.50;25.25;;;;;10.46;67.41;102001.41;5032534;28;45326;-71